Home > Products > Valid Products > TAF

000
FTUS44 KMOB 011800 AAA
TAFMOB
TAF AMD
KMOB 011808Z 0118/0218 VRB03KT P6SM BKN040
     FM020600 12003KT 5SM BR BKN015=



000
FTUS44 KMOB 011800 AAA
TAFPNS
TAF AMD
KPNS 011808Z 0118/0218 VRB04KT P6SM BKN040
     FM020900 15004KT 5SM BR BKN150=



000
FTUS44 KMOB 011800 AAA
TAFMOB
TAF AMD
KMOB 011808Z 0118/0218 VRB03KT P6SM BKN040
     FM020600 12003KT 5SM BR BKN015=



000
FTUS44 KMOB 011800 AAA
TAFPNS
TAF AMD
KPNS 011808Z 0118/0218 VRB04KT P6SM BKN040
     FM020900 15004KT 5SM BR BKN150=



000
FTUS44 KMOB 011700
TAFPNS
TAF
KPNS 011726Z 0118/0218 VRB04KT P6SM FEW023 FEW035
     FM020900 15004KT 5SM BR BKN250=



000
FTUS44 KMOB 011700
TAFMOB
TAF
KMOB 011726Z 0118/0218 VRB03KT P6SM BKN030 BKN040
     FM020900 12003KT 5SM BR BKN250=



000
FTUS44 KMOB 011700
TAFPNS
TAF
KPNS 011726Z 0118/0218 VRB04KT P6SM FEW023 FEW035
     FM020900 15004KT 5SM BR BKN250=



000
FTUS44 KMOB 011700
TAFMOB
TAF
KMOB 011726Z 0118/0218 VRB03KT P6SM BKN030 BKN040
     FM020900 12003KT 5SM BR BKN250=



000
FTUS44 KMOB 011214 AAA
TAFMOB

KMOB 011155Z 0112/0212 03003KT P6SM FEW050 SCT100
     FM011800 16005KT P6SM SCT250
     FM020900 12003KT 5SM BR BKN250=



000
FTUS44 KMOB 011214 AAA
TAFMOB

KMOB 011155Z 0112/0212 03003KT P6SM FEW050 SCT100
     FM011800 16005KT P6SM SCT250
     FM020900 12003KT 5SM BR BKN250=



000
FTUS44 KMOB 011218 RRA
TAFPNS

KPNS 011155Z 0112/0212 02003KT P6SM FEW030 SCT100
     FM011800 16007KT P6SM SCT250
     FM020900 15004KT 5SM BR BKN250=



000
FTUS44 KMOB 011000 AAA
TAFMOB
TAF AMD
KMOB 011031Z 0111/0206 03003KT P6SM SKC
     FM011400 10004KT P6SM FEW010=



000
FTUS44 KMOB 011000 AAA
TAFMOB
TAF AMD
KMOB 011031Z 0111/0206 03003KT P6SM SKC
     FM011400 10004KT P6SM FEW010=



000
FTUS44 KMOB 010500 RRA
TAFMOB
TAF
KMOB 010550Z 0106/0206 09003KT P6SM FEW030
     FM011000 00000KT 2SM BR SCT010
     FM011400 10004KT P6SM FEW010=



000
FTUS44 KMOB 010500 RRA
TAFMOB
TAF
KMOB 010550Z 0106/0206 09003KT P6SM FEW030
     FM011000 00000KT 2SM BR SCT010
     FM011400 10004KT P6SM FEW010=



000
FTUS44 KMOB 010500 RRA
TAFPNS
TAF
KPNS 010550Z 0106/0206 09004KT P6SM FEW030
     FM011000 00000KT 4SM BR SCT010
     FM011400 07004KT P6SM FEW010=



000
FTUS44 KMOB 010500 RRA
TAFPNS
TAF
KPNS 010550Z 0106/0206 09004KT P6SM FEW030
     FM011000 00000KT 4SM BR SCT010
     FM011400 07004KT P6SM FEW010=



000
FTUS44 KMOB 302300
TAFPNS
TAF
KPNS 302337Z 0100/0124 05006KT P6SM OVC030
     FM011000 00000KT 4SM BR OVC015
     FM011500 08005KT P6SM BKN015=



000
FTUS44 KMOB 302300
TAFMOB
TAF
KMOB 302337Z 0100/0124 03006KT P6SM FEW030
     FM010400 00000KT 5SM BR BKN015
     FM011000 00000KT 2SM BR OVC008
     FM011500 08005KT P6SM BKN015=



000
FTUS44 KMOB 302300
TAFPNS
TAF
KPNS 302337Z 0100/0124 05006KT P6SM OVC030
     FM011000 00000KT 4SM BR OVC015
     FM011500 08005KT P6SM BKN015=



000
FTUS44 KMOB 302300
TAFMOB
TAF
KMOB 302337Z 0100/0124 03006KT P6SM FEW030
     FM010400 00000KT 5SM BR BKN015
     FM011000 00000KT 2SM BR OVC008
     FM011500 08005KT P6SM BKN015=



000
FTUS44 KMOB 301700 RRA
TAFPNS
TAF
KPNS 301744Z 3018/0118 06005KT P6SM OVC022
     FM302000 17006KT P6SM BKN025
     FM010300 VRB03KT P6SM BKN020
     FM011000 00000KT 4SM BR OVC015
     FM011500 08005KT P6SM BKN015=



000
FTUS44 KMOB 301700 RRA
TAFMOB
TAF
KMOB 301744Z 3018/0118 05006KT P6SM OVC020
     FM010400 00000KT 5SM BR BKN015
     FM011000 00000KT 2SM BR OVC008
     FM011500 08005KT P6SM BKN015=



000
FTUS44 KMOB 301500 AAA
TAFPNS
TAF AMD
KPNS 301540Z 3016/0112 05006KT P6SM OVC021
     FM302000 17007KT P6SM BKN025
     FM010300 VRB02KT 5SM BR BKN018=



000
FTUS44 KMOB 301500 AAA
TAFPNS
TAF AMD
KPNS 301540Z 3016/0112 05006KT P6SM OVC021
     FM302000 17007KT P6SM BKN025
     FM010300 VRB02KT 5SM BR BKN018=



000
FTUS44 KMOB 301400 AAB
TAFMOB
TAF AMD
KMOB 301423Z 3014/0112 04006KT 3SM BR OVC003
     FM301600 05006KT P6SM BKN018
     FM010300 00000KT 5SM BR BKN012
     FM011000 00000KT 3SM BR OVC007=



000
FTUS44 KMOB 301400 AAB
TAFMOB
TAF AMD
KMOB 301423Z 3014/0112 04006KT 3SM BR OVC003
     FM301600 05006KT P6SM BKN018
     FM010300 00000KT 5SM BR BKN012
     FM011000 00000KT 3SM BR OVC007=



000
FTUS44 KMOB 301100 RRA
TAFMOB
TAF
KMOB 301157Z 3012/0112 05004KT 4SM BR BKN005
     FM301400 05006KT P6SM SCT009 BKN015
     FM301600 05005KT P6SM SCT250
     FM010900 00000KT 5SM BR SKC=



000
FTUS44 KMOB 301100 RRA
TAFPNS
TAF
KPNS 301157Z 3012/0112 05005KT P6SM OVC007
     FM301400 05006KT P6SM SCT009 BKN015
     FM301800 17007KT P6SM SCT250
     FM010600 05002KT 5SM BR SCT250=



000
FTUS44 KMOB 301100 RRA
TAFPNS
TAF
KPNS 301157Z 3012/0112 05005KT P6SM OVC007
     FM301400 05006KT P6SM SCT009 BKN015
     FM301800 17007KT P6SM SCT250
     FM010600 05002KT 5SM BR SCT250=



000
FTUS44 KMOB 301100 RRA
TAFMOB
TAF
KMOB 301157Z 3012/0112 05004KT 4SM BR BKN005
     FM301400 05006KT P6SM SCT009 BKN015
     FM301600 05005KT P6SM SCT250
     FM010900 00000KT 5SM BR SKC=



000
FTUS44 KMOB 301100 AAA
TAFMOB
TAF AMD
KMOB 301153Z 3012/0106 05004KT 4SM BR BKN005
     FM301400 05006KT P6SM SCT009 BKN015=



000
FTUS44 KMOB 301000 AAA
TAFMOB
TAF AMD
KMOB 301052Z 3011/0106 36003KT P6SM FEW050
     FM301400 05006KT P6SM SCT009 BKN015=



000
FTUS44 KMOB 301000 AAA
TAFMOB
TAF AMD
KMOB 301052Z 3011/0106 36003KT P6SM FEW050
     FM301400 05006KT P6SM SCT009 BKN015=



000
FTUS44 KMOB 300500 RRA
TAFPNS
TAF
KPNS 300543Z 3006/0106 04004KT P6SM SKC
     FM301000 04005KT 2SM BR OVC004
     FM301400 05006KT P6SM SCT009 BKN015=



000
FTUS44 KMOB 300500 RRA
TAFMOB
TAF
KMOB 300543Z 3006/0106 04004KT P6SM SKC
     FM301000 05005KT 2SM BR OVC004
     FM301400 05006KT P6SM SCT009 BKN015=



000
FTUS44 KMOB 300500 RRA
TAFMOB
TAF
KMOB 300543Z 3006/0106 04004KT P6SM SKC
     FM301000 05005KT 2SM BR OVC004
     FM301400 05006KT P6SM SCT009 BKN015=



000
FTUS44 KMOB 300500 RRA
TAFPNS
TAF
KPNS 300543Z 3006/0106 04004KT P6SM SKC
     FM301000 04005KT 2SM BR OVC004
     FM301400 05006KT P6SM SCT009 BKN015=



000
FTUS44 KMOB 292300
TAFPNS
TAF
KPNS 292330Z 3000/3024 12003KT P6SM VCTS FEW020CB BKN030 OVC070
     FM300400 03005KT P6SM BKN010 BKN100
     FM301000 04005KT 2SM BR OVC004
     FM301400 05006KT P6SM SCT009 BKN015=



000
FTUS44 KMOB 292300
TAFMOB
TAF
KMOB 292330Z 3000/3024 35003KT P6SM VCTS FEW030CB SCT070 SCT200
     FM300400 04005KT P6SM SCT010 SCT100
     FM301000 05005KT 2SM BR OVC004
     FM301400 05006KT P6SM SCT009 BKN015=



000
FTUS44 KMOB 292300
TAFMOB
TAF
KMOB 292330Z 3000/3024 35003KT P6SM VCTS FEW030CB SCT070 SCT200
     FM300400 04005KT P6SM SCT010 SCT100
     FM301000 05005KT 2SM BR OVC004
     FM301400 05006KT P6SM SCT009 BKN015=



000
FTUS44 KMOB 292300
TAFPNS
TAF
KPNS 292330Z 3000/3024 12003KT P6SM VCTS FEW020CB BKN030 OVC070
     FM300400 03005KT P6SM BKN010 BKN100
     FM301000 04005KT 2SM BR OVC004
     FM301400 05006KT P6SM SCT009 BKN015=



000
FTUS44 KMOB 291700
TAFMOB
TAF
KMOB 291734Z 2918/3018 03008KT 5SM HZ VCSH SCT014 OVC022
     FM300000 04004KT 4SM BR OVC007
     FM301000 05005KT 2SM BR OVC004
     FM301400 05006KT P6SM SCT009 BKN015=



000
FTUS44 KMOB 291700
TAFPNS
TAF
KPNS 291734Z 2918/3018 VRB06KT P6SM -RA VCSH SCT011 OVC022
      TEMPO 2918/2921 5SM -RA BR BKN009 OVC022
     FM300000 04005KT P6SM OVC012
     FM301000 04005KT P6SM OVC007
     FM301400 05006KT P6SM SCT009 BKN015=



000
FTUS44 KMOB 291700
TAFMOB
TAF
KMOB 291734Z 2918/3018 03008KT 5SM HZ VCSH SCT014 OVC022
     FM300000 04004KT 4SM BR OVC007
     FM301000 05005KT 2SM BR OVC004
     FM301400 05006KT P6SM SCT009 BKN015=



000
FTUS44 KMOB 291700
TAFPNS
TAF
KPNS 291734Z 2918/3018 VRB06KT P6SM -RA VCSH SCT011 OVC022
      TEMPO 2918/2921 5SM -RA BR BKN009 OVC022
     FM300000 04005KT P6SM OVC012
     FM301000 04005KT P6SM OVC007
     FM301400 05006KT P6SM SCT009 BKN015=



000
FTUS44 KMOB 291400 AAA
TAFMOB
TAF AMD
KMOB 291452Z 2915/3012 03010KT 4SM BR VCSH OVC009
     FM291800 03007KT P6SM VCSH BKN030
     FM292100 02006KT P6SM BKN040=



000
FTUS44 KMOB 291400 AAA
TAFMOB
TAF AMD
KMOB 291452Z 2915/3012 03010KT 4SM BR VCSH OVC009
     FM291800 03007KT P6SM VCSH BKN030
     FM292100 02006KT P6SM BKN040=



000
FTUS44 KMOB 291100
TAFMOB
TAF
KMOB 291129Z 2912/3012 04007KT 5SM BR VCSH OVC007
     FM291400 04009KT P6SM VCSH OVC015
     FM291800 03007KT P6SM VCSH BKN030
     FM292100 02006KT P6SM BKN040=



000
FTUS44 KMOB 291100
TAFPNS
TAF
KPNS 291129Z 2912/3012 04007KT P6SM VCSH BKN009 BKN015 OVC030
     FM291400 04009KT P6SM -RA OVC015
     FM291800 02009KT P6SM VCSH BKN030
     FM292100 02007KT P6SM BKN040=



000
FTUS44 KMOB 291100
TAFMOB
TAF
KMOB 291129Z 2912/3012 04007KT 5SM BR VCSH OVC007
     FM291400 04009KT P6SM VCSH OVC015
     FM291800 03007KT P6SM VCSH BKN030
     FM292100 02006KT P6SM BKN040=



000
FTUS44 KMOB 291100
TAFPNS
TAF
KPNS 291129Z 2912/3012 04007KT P6SM VCSH BKN009 BKN015 OVC030
     FM291400 04009KT P6SM -RA OVC015
     FM291800 02009KT P6SM VCSH BKN030
     FM292100 02007KT P6SM BKN040=



000
FTUS44 KMOB 290500
TAFMOB
TAF
KMOB 290526Z 2906/3006 06007KT P6SM VCSH BKN009
     FM290900 05005KT P6SM -DZ VCSH OVC007
     FM291800 05006KT P6SM VCTS BKN025CB PROB30 2918/2921 4SM TSRA
      BKN020CB=



000
FTUS44 KMOB 290500
TAFPNS
TAF
KPNS 290526Z 2906/3006 05005KT P6SM -RA VCSH BKN007 BKN012 OVC030
     FM290900 03005KT P6SM -DZ VCSH OVC004
     FM291800 05006KT P6SM VCTS OVC025CB PROB30 2918/2921 4SM TSRA
      BKN020CB=



000
FTUS44 KMOB 290500 AAA
TAFMOB
TAF AMD
KMOB 290502Z 2905/2924 05005KT P6SM VCSH BKN009
     FM291800 05006KT P6SM VCTS BKN025CB=



000
FTUS44 KMOB 290500 AAA
TAFMOB
TAF AMD
KMOB 290502Z 2905/2924 05005KT P6SM VCSH BKN009
     FM291800 05006KT P6SM VCTS BKN025CB=



000
FTUS44 KMOB 282300
TAFMOB
TAF
KMOB 282325Z 2900/2924 12006KT P6SM VCSH SCT018 BKN110
      TEMPO 2900/2904 2SM SHRA BR BKN009 OVC015
     FM290400 06005KT P6SM VCSH FEW009 OVC015 PROB30 2912/2918 3SM
      SHRA BR BKN009 OVC015
     FM291800 05006KT P6SM VCTS BKN025CB=



000
FTUS44 KMOB 282300
TAFPNS
TAF
KPNS 282325Z 2900/2924 04004KT P6SM VCSH SCT010 OVC020
      TEMPO 2900/2904 3SM SHRA BR BKN009 OVC015
     FM290400 05005KT P6SM VCSH FEW009 OVC015 PROB30 2912/2918 3SM
      SHRA BR BKN009 OVC015
     FM291800 05006KT P6SM VCTS OVC025CB=



000
FTUS44 KMOB 282300
TAFMOB
TAF
KMOB 282325Z 2900/2924 12006KT P6SM VCSH SCT018 BKN110
      TEMPO 2900/2904 2SM SHRA BR BKN009 OVC015
     FM290400 06005KT P6SM VCSH FEW009 OVC015 PROB30 2912/2918 3SM
      SHRA BR BKN009 OVC015
     FM291800 05006KT P6SM VCTS BKN025CB=



000
FTUS44 KMOB 282300
TAFPNS
TAF
KPNS 282325Z 2900/2924 04004KT P6SM VCSH SCT010 OVC020
      TEMPO 2900/2904 3SM SHRA BR BKN009 OVC015
     FM290400 05005KT P6SM VCSH FEW009 OVC015 PROB30 2912/2918 3SM
      SHRA BR BKN009 OVC015
     FM291800 05006KT P6SM VCTS OVC025CB=



000
FTUS44 KMOB 282100 AAA
TAFPNS
TAF AMD
KPNS 282156Z 2822/2918 VRB04KT P6SM -RA VCSH SCT040 SCT045 BKN090
      TEMPO 2822/2902 2SM -SHRA BKN009 OVC015
     FM290200 05005KT P6SM FEW009 OVC015 PROB30 2912/2918 2SM -SHRA
      BKN009 OVC015=



000
FTUS44 KMOB 282100 AAA
TAFPNS
TAF AMD
KPNS 282156Z 2822/2918 VRB04KT P6SM -RA VCSH SCT040 SCT045 BKN090
      TEMPO 2822/2902 2SM -SHRA BKN009 OVC015
     FM290200 05005KT P6SM FEW009 OVC015 PROB30 2912/2918 2SM -SHRA
      BKN009 OVC015=



000
FTUS44 KMOB 282100 AAA
TAFMOB
TAF AMD
KMOB 282155Z 2822/2918 11010KT P6SM VCSH FEW021 SCT045 OVC110
      TEMPO 2822/2902 2SM -SHRA BKN009 OVC015
     FM290200 06005KT P6SM FEW009 OVC015 PROB30 2912/2918 2SM -SHRA
      BKN009 OVC015=



000
FTUS44 KMOB 282100 AAA
TAFMOB
TAF AMD
KMOB 282155Z 2822/2918 11010KT P6SM VCSH FEW021 SCT045 OVC110
      TEMPO 2822/2902 2SM -SHRA BKN009 OVC015
     FM290200 06005KT P6SM FEW009 OVC015 PROB30 2912/2918 2SM -SHRA
      BKN009 OVC015=



    US Dept of Commerce
    National Oceanic and Atmospheric Administration
    National Weather Service
    1325 East West Highway
    Silver Spring, MD 20910
    Page Author: NWS Internet Services Team
Disclaimer
Information Quality
Credits
Glossary
Privacy Policy
Freedom of Information Act (FOIA)
About Us
Career Opportunities